Time;durP1;ratioP1;P1;durP2;ratioP2;P2;SDS_P1;SDS_P2;PMS_P1;PMS_P2;Temp;Humidity;BMP_temperature;BMP_pressure;BME280_temperature;BME280_humidity;BME280_pressure;Samples;Min_cycle;Max_cycle;Signal;HPM_P1;HPM_P2
2021/12/22 00:00:20;;;;;;;12.00;3.92;;;;;;;5.79;43.52;98874.53;4471850;32;20148;-76
2021/12/22 00:02:48;;;;;;;13.40;4.45;;;;;;;6.13;43.24;98881.84;4457911;32;20171;-76
2021/12/22 00:05:17;;;;;;;12.82;4.68;;;;;;;5.59;44.34;98886.66;4471541;32;20105;-76
2021/12/22 00:07:44;;;;;;;9.75;3.72;;;;;;;5.22;45.12;98887.00;4470565;32;20093;-76
2021/12/22 00:10:12;;;;;;;11.50;4.18;;;;;;;5.21;46.08;98880.19;4471777;32;20155;-76
2021/12/22 00:12:39;;;;;;;10.90;4.32;;;;;;;5.36;45.51;98884.31;4471503;32;20156;-76
2021/12/22 00:15:06;;;;;;;10.73;4.40;;;;;;;5.22;46.02;98886.16;4471830;32;20435;-76
2021/12/22 00:17:33;;;;;;;12.20;4.50;;;;;;;5.32;45.81;98894.59;4471506;32;20119;-76
2021/12/22 00:20:00;;;;;;;12.82;4.00;;;;;;;5.98;44.31;98889.72;4471385;32;20108;-76
2021/12/22 00:22:27;;;;;;;10.82;4.20;;;;;;;6.06;44.03;98893.03;4471655;32;20160;-76
2021/12/22 00:24:55;;;;;;;11.85;4.40;;;;;;;5.95;44.07;98897.44;4471747;32;20149;-76
2021/12/22 00:27:22;;;;;;;13.32;4.95;;;;;;;5.81;44.65;98897.53;4444615;32;20112;-76
2021/12/22 00:29:51;;;;;;;16.08;6.20;;;;;;;5.88;44.59;98900.91;4471686;32;20606;-76
2021/12/22 00:32:19;;;;;;;43.70;19.48;;;;;;;6.51;42.95;98903.63;4471622;32;20110;-76
2021/12/22 00:34:50;;;;;;;46.97;21.33;;;;;;;6.92;42.63;98903.06;4457264;32;20093;-76
2021/12/22 00:37:20;;;;;;;46.05;20.95;;;;;;;5.81;45.53;98895.84;4457754;32;20149;-76
2021/12/22 00:39:47;;;;;;;49.38;20.27;;;;;;;5.44;47.32;98897.06;4471443;32;20092;-76
2021/12/22 00:42:15;;;;;;;42.03;18.00;;;;;;;6.55;44.75;98901.00;4457081;32;20089;-76
2021/12/22 00:44:43;;;;;;;47.55;19.30;;;;;;;6.78;43.88;98889.56;4471434;32;20427;-76
2021/12/22 00:47:10;;;;;;;44.88;19.35;;;;;;;6.93;43.07;98895.34;4457138;32;20109;-75
2021/12/22 00:49:37;;;;;;;42.53;18.83;;;;;;;5.78;46.00;98895.87;4471356;32;20397;-75
2021/12/22 00:52:04;;;;;;;38.72;17.80;;;;;;;6.11;45.66;98900.69;4471479;32;20139;-75
2021/12/22 00:54:31;;;;;;;34.75;16.50;;;;;;;6.20;45.07;98898.03;4471031;32;20390;-75
2021/12/22 00:57:04;;;;;;;37.22;15.73;;;;;;;6.48;44.66;98893.38;4471179;32;20354;-75
2021/12/22 00:59:33;;;;;;;34.00;16.25;;;;;;;6.42;44.52;98899.47;4471230;32;20088;-76
2021/12/22 01:02:01;;;;;;;31.77;12.80;;;;;;;6.28;45.15;98903.91;4471000;32;20093;-76
2021/12/22 01:04:28;;;;;;;34.70;14.05;;;;;;;6.71;44.09;98908.50;4471397;32;20076;-76
2021/12/22 01:06:55;;;;;;;32.13;13.65;;;;;;;6.70;43.60;98915.34;4471198;32;20153;-76
2021/12/22 01:09:22;;;;;;;26.92;9.77;;;;;;;6.34;44.40;98908.94;4456795;32;20112;-76
2021/12/22 01:11:49;;;;;;;26.52;9.77;;;;;;;6.07;44.66;98916.09;4471139;32;20171;-76
2021/12/22 01:14:16;;;;;;;22.30;8.05;;;;;;;6.24;44.41;98913.34;4471158;32;20076;-76
2021/12/22 01:16:49;;;;;;;12.80;5.47;;;;;;;6.60;43.76;98922.31;4470463;32;20154;-76
2021/12/22 01:19:23;;;;;;;12.32;4.70;;;;;;;5.69;45.45;98921.56;4472057;32;20140;-76
2021/12/22 01:22:00;;;;;;;12.65;4.72;;;;;;;6.13;45.20;98917.72;4473117;32;20359;-76
2021/12/22 01:24:34;;;;;;;11.95;4.90;;;;;;;5.89;46.20;98912.84;4472909;32;20085;-76
2021/12/22 01:27:08;;;;;;;14.18;4.62;;;;;;;5.86;46.50;98915.44;4473027;32;20553;-76
2021/12/22 01:29:39;;;;;;;10.93;4.25;;;;;;;6.03;45.53;98914.41;4472552;32;20096;-75
2021/12/22 01:32:09;;;;;;;12.82;4.97;;;;;;;5.80;46.03;98911.22;4472969;32;20088;-75
2021/12/22 01:34:36;;;;;;;11.23;4.37;;;;;;;5.90;46.30;98912.84;4472936;32;20084;-76
2021/12/22 01:37:03;;;;;;;14.95;5.40;;;;;;;5.79;46.66;98927.44;4472497;32;20164;-76
2021/12/22 01:39:30;;;;;;;14.60;4.80;;;;;;;5.88;46.58;98914.56;4472793;32;20464;-76
2021/12/22 01:41:57;;;;;;;13.40;5.50;;;;;;;6.25;45.33;98925.28;4472782;32;20140;-76
2021/12/22 01:44:33;;;;;;;14.43;5.62;;;;;;;6.27;45.49;98928.69;4472424;32;20118;-76
2021/12/22 01:49:50;;;;;;;;;;;;;;;6.43;44.96;98916.53;4473083;32;20396;-76
2021/12/22 01:52:19;;;;;;;12.18;4.53;;;;;;;6.38;44.76;98919.16;4472644;32;19968;-76
2021/12/22 01:55:14;;;;;;;12.63;4.37;;;;;;;6.39;44.80;98925.13;4458776;32;20068;-76
2021/12/22 01:57:46;;;;;;;12.30;4.53;;;;;;;6.57;44.18;98929.16;4472431;32;20143;-76
2021/12/22 02:00:15;;;;;;;12.68;5.37;;;;;;;7.16;42.78;98924.94;4472570;32;20429;-76
2021/12/22 02:02:42;;;;;;;13.68;4.90;;;;;;;6.65;43.66;98922.22;4472767;32;20141;-76
2021/12/22 02:05:09;;;;;;;12.93;4.95;;;;;;;6.86;43.45;98915.97;4472376;32;20193;-76
2021/12/22 02:07:36;;;;;;;11.05;4.65;;;;;;;6.89;42.78;98915.91;4472663;32;20483;-76
2021/12/22 02:12:36;;;;;;;13.10;4.82;;;;;;;6.94;42.83;98916.72;4472215;32;20097;-76
2021/12/22 02:15:05;;;;;;;11.02;4.12;;;;;;;6.61;43.23;98916.31;4472585;32;20097;-76
2021/12/22 02:17:35;;;;;;;12.48;4.68;;;;;;;6.80;42.83;98908.34;4458226;32;20152;-76
2021/12/22 02:20:03;;;;;;;13.18;5.03;;;;;;;6.01;44.46;98903.34;4472184;32;20144;-76
2021/12/22 02:22:30;;;;;;;12.20;4.30;;;;;;;6.28;44.00;98914.16;4472534;32;20411;-76
2021/12/22 02:25:03;;;;;;;12.60;4.20;;;;;;;6.17;44.04;98903.16;4472577;32;20102;-76
2021/12/22 02:27:37;;;;;;;10.60;4.55;;;;;;;6.85;42.77;98907.44;4472293;32;20112;-76
2021/12/22 02:30:13;;;;;;;11.02;4.30;;;;;;;6.54;43.36;98909.56;4471866;32;20440;-76
2021/12/22 02:35:39;;;;;;;9.88;4.30;;;;;;;6.36;43.90;98912.34;4460221;32;20081;-76
2021/12/22 02:38:13;;;;;;;12.70;4.85;;;;;;;6.35;43.64;98908.94;4472268;32;20119;-76
2021/12/22 02:40:43;;;;;;;11.63;4.35;;;;;;;6.56;43.05;98915.50;4472237;32;20495;-76
2021/12/22 02:43:10;;;;;;;11.70;4.43;;;;;;;6.97;41.86;98920.06;4472549;32;20183;-75
2021/12/22 02:45:37;;;;;;;12.88;4.70;;;;;;;6.81;41.92;98921.19;4458544;32;20156;-76
2021/12/22 02:48:05;;;;;;;11.63;3.67;;;;;;;6.30;42.78;98922.69;4472145;32;20166;-76
2021/12/22 02:50:36;;;;;;;10.55;3.97;;;;;;;6.97;41.59;98917.50;4458482;32;20100;-76
2021/12/22 02:53:07;;;;;;;12.07;4.18;;;;;;;6.74;42.11;98917.00;4472414;32;20157;-75
2021/12/22 02:55:58;;;;;;;9.85;3.97;;;;;;;6.22;43.29;98914.22;4472046;32;20124;-75
2021/12/22 02:58:43;;;;;;;10.40;4.18;;;;;;;6.11;44.02;98916.06;4472143;32;20160;-76
2021/12/22 03:01:26;;;;;;;10.60;4.10;;;;;;;6.07;44.11;98916.09;4471858;32;20159;-76
2021/12/22 03:04:04;;;;;;;10.75;4.20;;;;;;;5.93;44.39;98920.50;4472315;32;20081;-75
2021/12/22 03:06:36;;;;;;;11.43;3.70;;;;;;;6.02;44.43;98920.41;4459586;32;20104;-75
2021/12/22 03:09:22;;;;;;;11.43;3.78;;;;;;;6.16;44.17;98919.41;4471795;32;20453;-75
2021/12/22 03:11:50;;;;;;;12.32;4.30;;;;;;;6.61;43.35;98916.31;4472084;32;20144;-76
2021/12/22 03:14:18;;;;;;;10.52;4.28;;;;;;;6.55;43.21;98913.81;4458183;32;20155;-75
2021/12/22 03:16:45;;;;;;;9.77;4.20;;;;;;;6.66;42.39;98917.09;4471873;32;20085;-76
2021/12/22 03:19:18;;;;;;;11.57;5.35;;;;;;;6.55;42.79;98918.94;4458210;32;20577;-76
2021/12/22 03:21:47;;;;;;;12.10;4.80;;;;;;;6.15;43.22;98922.84;4471891;32;20092;-76
2021/12/22 03:24:16;;;;;;;14.23;5.43;;;;;;;6.41;42.66;98918.28;4458321;32;20487;-75
2021/12/22 03:26:44;;;;;;;12.05;4.65;;;;;;;6.53;41.93;98917.28;4472180;32;20141;-76
2021/12/22 03:29:14;;;;;;;10.95;4.35;;;;;;;6.22;42.79;98916.78;4471713;32;20127;-76
2021/12/22 03:31:41;;;;;;;12.07;4.60;;;;;;;6.24;42.72;98927.88;4472078;32;20101;-76
2021/12/22 03:34:09;;;;;;;10.50;4.07;;;;;;;6.02;43.26;98922.97;4458161;32;20103;-76
2021/12/22 03:36:37;;;;;;;13.20;4.85;;;;;;;5.01;45.11;98920.41;4471743;32;20487;-76
2021/12/22 03:39:05;;;;;;;13.00;5.55;;;;;;;4.93;46.42;98925.56;4471951;32;20109;-75
2021/12/22 03:41:34;;;;;;;15.45;5.95;;;;;;;5.43;45.24;98924.38;4471889;32;20101;-76
2021/12/22 03:44:03;;;;;;;20.02;7.85;;;;;;;4.95;46.23;98925.56;4471713;32;20085;-75
2021/12/22 03:46:30;;;;;;;22.08;9.15;;;;;;;4.92;46.43;98920.47;4472100;32;20351;-76
2021/12/22 03:48:58;;;;;;;36.60;18.65;;;;;;;4.97;46.80;98922.97;4472012;32;20157;-75
2021/12/22 03:51:26;;;;;;;40.30;18.73;;;;;;;4.15;49.12;98935.31;4457657;32;20105;-75
2021/12/22 03:53:54;;;;;;;32.08;14.60;;;;;;;4.89;46.87;98935.81;4457969;32;20152;-75
2021/12/22 03:56:21;;;;;;;37.90;17.95;;;;;;;5.35;45.63;98936.38;4457827;32;20124;-75
2021/12/22 03:58:48;;;;;;;35.55;15.13;;;;;;;4.97;46.12;98934.06;4471355;32;20088;-75
2021/12/22 04:01:15;;;;;;;28.65;12.45;;;;;;;5.26;45.17;98941.53;4471980;32;20188;-75
2021/12/22 04:03:45;;;;;;;21.20;7.60;;;;;;;5.28;45.00;98938.97;4457768;32;20088;-75
2021/12/22 04:06:12;;;;;;;24.50;9.13;;;;;;;5.26;44.74;98944.09;4471856;32;20111;-75
2021/12/22 04:08:39;;;;;;;19.00;6.97;;;;;;;4.80;45.13;98938.44;4471722;32;20097;-75
2021/12/22 04:11:06;;;;;;;27.90;11.07;;;;;;;4.97;44.57;98938.31;4471538;32;20175;-75
2021/12/22 04:13:33;;;;;;;25.77;9.88;;;;;;;5.48;43.69;98945.62;4471836;32;20081;-75
2021/12/22 04:16:00;;;;;;;26.77;11.60;;;;;;;5.79;42.81;98947.94;4471789;32;20187;-75
2021/12/22 04:18:27;;;;;;;40.42;15.27;;;;;;;5.89;42.29;98948.69;4470981;32;20449;-75
2021/12/22 04:20:54;;;;;;;26.62;10.75;;;;;;;5.15;43.87;98948.44;4471666;32;20167;-75
2021/12/22 04:23:21;;;;;;;28.35;11.75;;;;;;;4.90;44.33;98947.75;4471702;32;20167;-75
2021/12/22 04:25:48;;;;;;;22.87;9.57;;;;;;;4.87;44.14;98955.44;4471412;32;20152;-75
2021/12/22 04:28:15;;;;;;;16.90;7.10;;;;;;;4.65;44.50;98937.62;4457674;32;20119;-75
2021/12/22 04:30:47;;;;;;;18.67;6.50;;;;;;;4.63;43.68;98938.50;4457563;32;20128;-75
2021/12/22 04:33:16;;;;;;;15.45;5.70;;;;;;;5.01;43.95;98947.69;4471516;32;20095;-75
2021/12/22 04:35:43;;;;;;;17.80;6.57;;;;;;;5.44;42.30;98943.97;4457546;32;20081;-75
2021/12/22 04:38:10;;;;;;;17.02;6.30;;;;;;;4.50;44.55;98945.41;4471321;32;20147;-75
2021/12/22 04:40:37;;;;;;;15.65;5.95;;;;;;;5.37;42.38;98952.56;4471206;32;20140;-75
2021/12/22 04:43:04;;;;;;;20.33;8.48;;;;;;;4.74;43.21;98958.91;4471555;32;20215;-75
2021/12/22 04:45:31;;;;;;;21.37;8.35;;;;;;;4.48;43.93;98965.00;4471436;32;20085;-75
2021/12/22 04:47:58;;;;;;;39.67;15.88;;;;;;;5.17;42.42;98967.19;4471429;32;20162;-75
2021/12/22 04:50:25;;;;;;;39.88;16.17;;;;;;;4.49;43.83;98970.97;4471499;32;20110;-75
2021/12/22 04:53:15;;;;;;;33.08;13.13;;;;;;;3.71;46.13;98973.66;4470468;32;20619;-75
2021/12/22 04:55:42;;;;;;;18.42;7.97;;;;;;;3.36;46.96;98986.41;4471548;32;20116;-75
2021/12/22 04:58:10;;;;;;;20.25;7.70;;;;;;;5.03;43.43;98986.91;4471231;32;20137;-75
2021/12/22 05:00:39;;;;;;;19.52;8.63;;;;;;;4.32;44.92;98983.78;4471022;32;20118;-75
2021/12/22 05:03:06;;;;;;;21.52;7.90;;;;;;;4.63;44.39;98981.97;4471332;32;20777;-75
2021/12/22 05:05:33;;;;;;;19.50;7.62;;;;;;;4.72;44.03;98992.16;4471350;32;20097;-75
2021/12/22 05:08:00;;;;;;;22.10;7.78;;;;;;;3.65;46.15;98989.00;4470838;32;20140;-75
2021/12/22 05:10:28;;;;;;;17.15;7.03;;;;;;;4.78;42.81;98994.66;4471262;32;20130;-75
2021/12/22 05:12:55;;;;;;;17.12;6.40;;;;;;;3.60;44.99;98990.66;4457407;32;20132;-75
2021/12/22 05:15:25;;;;;;;15.52;5.28;;;;;;;3.95;44.44;98993.22;4456665;32;20405;-75
2021/12/22 05:20:23;;;;;;;16.95;5.97;;;;;;;2.98;46.45;98984.66;4457482;32;20188;-75
2021/12/22 05:22:51;;;;;;;15.65;5.57;;;;;;;3.03;46.78;98990.62;4470774;32;20144;-75
2021/12/22 05:25:19;;;;;;;14.93;4.95;;;;;;;3.80;45.22;98988.13;4471028;32;20143;-75
2021/12/22 05:27:46;;;;;;;13.23;4.65;;;;;;;4.09;44.50;98988.09;4470679;32;20478;-75
2021/12/22 05:30:12;;;;;;;;;;;;;;;4.14;44.23;98987.22;4471235;32;20145;-75
2021/12/22 05:32:40;;;;;;;10.93;3.33;;;;;;;4.19;44.29;98988.06;4471009;32;19983;-75
2021/12/22 05:35:10;;;;;;;10.50;3.60;;;;;;;3.68;45.26;98986.44;4470567;32;20154;-76
2021/12/22 05:37:37;;;;;;;11.02;4.05;;;;;;;3.83;45.43;98998.31;4470797;32;20144;-75
2021/12/22 05:40:07;;;;;;;10.20;3.87;;;;;;;3.56;45.72;98996.63;4470759;32;20505;-75
2021/12/22 05:42:34;;;;;;;9.27;3.22;;;;;;;3.41;46.01;98997.50;4470525;32;20102;-76
2021/12/22 05:45:01;;;;;;;9.93;3.17;;;;;;;2.93;47.15;98993.13;4456984;32;20710;-75
2021/12/22 05:47:28;;;;;;;9.35;3.42;;;;;;;3.68;45.60;99001.75;4470728;32;20161;-75
2021/12/22 05:49:55;;;;;;;9.35;3.28;;;;;;;2.74;47.50;98995.59;4456211;32;20117;-75
2021/12/22 05:52:22;;;;;;;10.05;3.50;;;;;;;3.08;46.86;99006.75;4470738;32;20103;-75
2021/12/22 05:54:49;;;;;;;9.60;3.65;;;;;;;2.94;47.35;99010.13;4470508;32;20169;-77
2021/12/22 05:57:16;;;;;;;9.25;3.28;;;;;;;3.67;45.68;99011.09;4470126;32;20465;-77
2021/12/22 05:59:43;;;;;;;11.05;3.85;;;;;;;3.10;46.29;99006.78;4456279;32;20583;-75
2021/12/22 06:02:10;;;;;;;;;;;;;;;3.34;46.74;99008.53;4456735;32;20156;-77
2021/12/22 06:04:37;;;;;;;10.82;3.67;;;;;;;2.96;47.92;99005.88;4470660;32;20326;-74
2021/12/22 06:07:04;;;;;;;;;;;;;;;2.89;47.85;99008.44;4472732;32;20141;-75
2021/12/22 06:09:31;;;;;;;10.00;3.55;;;;;;;3.29;47.01;99007.66;4458373;32;19987;-77
2021/12/22 06:11:58;;;;;;;11.50;3.92;;;;;;;3.55;46.78;99010.25;4472223;32;20096;-77
2021/12/22 06:14:25;;;;;;;;;;;;;;;3.91;45.57;99007.69;4472814;32;20398;-75
2021/12/22 06:16:52;;;;;;;17.02;6.05;;;;;;;4.12;44.67;99005.97;4457841;32;19996;-76
2021/12/22 06:19:20;;;;;;;;;;;;;;;4.47;43.48;99004.19;4458535;32;20123;-76
2021/12/22 06:21:47;;;;;;;18.33;7.57;;;;;;;3.90;44.33;99011.09;4472454;32;20031;-76
2021/12/22 06:24:14;;;;;;;21.25;7.07;;;;;;;3.40;45.47;99014.50;4472074;32;20089;-76
2021/12/22 06:26:41;;;;;;;22.55;8.43;;;;;;;3.72;45.03;99017.06;4472421;32;20153;-76
2021/12/22 06:29:08;;;;;;;;;;;;;;;4.07;43.63;99018.75;4472578;32;20131;-76
2021/12/22 06:31:35;;;;;;;17.77;8.00;;;;;;;3.72;44.58;99028.94;4472235;32;19984;-76
2021/12/22 06:34:03;;;;;;;25.92;10.50;;;;;;;3.88;43.85;99027.25;4472291;32;20076;-75
2021/12/22 06:36:31;;;;;;;16.52;6.15;;;;;;;3.27;45.11;99034.84;4472185;32;20084;-75
2021/12/22 06:38:58;;;;;;;14.77;5.90;;;;;;;2.77;46.92;99041.53;4471734;32;20456;-76
2021/12/22 06:41:24;;;;;;;;;;;;;;;3.19;45.87;99040.81;4472737;32;20427;-75
2021/12/22 06:43:51;;;;;;;17.87;6.18;;;;;;;3.08;46.40;99044.16;4472294;32;19964;-75
2021/12/22 06:46:18;;;;;;;;;;;;;;;3.63;45.46;99042.59;4472252;32;20148;-76
2021/12/22 06:48:45;;;;;;;13.90;5.50;;;;;;;3.00;46.37;99045.84;4472232;32;19976;-76
2021/12/22 06:51:12;;;;;;;;;;;;;;;2.48;47.46;99055.81;4472560;32;20175;-76
2021/12/22 06:53:39;;;;;;;19.12;6.22;;;;;;;3.21;46.00;99056.13;4471924;32;19982;-76
2021/12/22 06:56:06;;;;;;;;;;;;;;;2.84;46.68;99055.13;4472455;32;20136;-76
2021/12/22 06:58:33;;;;;;;39.88;14.07;;;;;;;3.67;44.65;99062.16;4471992;32;20127;-75
2021/12/22 07:01:00;;;;;;;39.60;14.65;;;;;;;3.34;46.11;99062.09;4471816;32;20143;-76
2021/12/22 07:03:28;;;;;;;30.55;11.15;;;;;;;3.58;45.51;99061.28;4472069;32;20119;-76
2021/12/22 07:05:55;;;;;;;20.92;6.70;;;;;;;3.89;45.00;99068.12;4471814;32;20439;-76
2021/12/22 07:08:21;;;;;;;;;;;;;;;3.39;47.64;99073.16;4472332;32;20140;-76
2021/12/22 07:10:49;;;;;;;28.45;10.55;;;;;;;4.25;45.63;99072.38;4472264;32;19980;-76
2021/12/22 07:13:17;;;;;;;20.85;8.10;;;;;;;4.57;45.53;99084.22;4457862;32;20434;-76
2021/12/22 07:15:44;;;;;;;17.75;7.05;;;;;;;4.93;43.78;99073.91;4457856;32;20116;-76
2021/12/22 07:18:12;;;;;;;17.42;6.95;;;;;;;5.74;42.62;99078.59;4471415;32;20105;-76
2021/12/22 07:20:39;;;;;;;14.07;5.20;;;;;;;6.69;40.58;99080.31;4471717;32;20178;-76
2021/12/22 07:23:06;;;;;;;13.43;4.55;;;;;;;7.25;38.26;99078.81;4471574;32;20246;-76
2021/12/22 07:25:35;;;;;;;13.75;5.12;;;;;;;7.64;37.39;99082.53;4472022;32;20110;-75
2021/12/22 07:28:02;;;;;;;11.95;4.68;;;;;;;8.36;36.47;99087.44;4471606;32;20101;-76
2021/12/22 07:30:30;;;;;;;12.52;4.43;;;;;;;9.02;35.30;99087.94;4471210;32;20156;-76
2021/12/22 07:32:59;;;;;;;10.48;3.92;;;;;;;9.64;33.93;99083.19;4470593;32;20089;-76
2021/12/22 07:36:00;;;;;;;11.43;4.40;;;;;;;10.17;32.69;99092.25;4470423;32;20140;-76
2021/12/22 07:38:34;;;;;;;13.62;4.80;;;;;;;8.46;33.69;99098.41;4471890;32;20092;-77
2021/12/22 07:41:03;;;;;;;17.33;7.47;;;;;;;7.12;37.21;99102.94;4471633;32;20175;-76
2021/12/22 07:43:30;;;;;;;16.95;7.87;;;;;;;6.22;38.75;99107.28;4456519;32;20111;-76
2021/12/22 07:45:57;;;;;;;16.30;6.70;;;;;;;6.50;39.86;99107.88;4469707;32;20107;-76
2021/12/22 07:48:24;;;;;;;14.95;5.82;;;;;;;7.72;38.45;99114.12;4469324;32;20119;-76
2021/12/22 07:50:56;;;;;;;11.75;4.47;;;;;;;8.86;36.09;99119.13;4469790;32;20157;-76
2021/12/22 07:53:23;;;;;;;13.05;4.75;;;;;;;8.96;35.79;99119.81;4470597;32;20081;-76
2021/12/22 07:55:53;;;;;;;11.77;4.87;;;;;;;9.68;34.83;99118.34;4456582;32;20119;-76
2021/12/22 07:58:22;;;;;;;15.05;6.05;;;;;;;8.01;38.29;99123.97;4471131;32;20097;-76
2021/12/22 08:00:49;;;;;;;12.40;5.10;;;;;;;7.39;40.18;99118.00;4471863;32;20093;-76
2021/12/22 08:03:17;;;;;;;15.90;6.10;;;;;;;8.53;37.94;99130.03;4471408;32;20446;-76
2021/12/22 08:06:04;;;;;;;14.50;5.87;;;;;;;8.27;38.29;99133.84;4471618;32;20458;-76
2021/12/22 08:08:31;;;;;;;14.10;6.03;;;;;;;6.93;40.37;99125.41;4471734;32;20119;-76
2021/12/22 08:10:58;;;;;;;14.57;6.20;;;;;;;6.37;41.87;99129.34;4471450;32;20088;-76
2021/12/22 08:13:25;;;;;;;;;;;;;;;6.66;42.52;99132.50;4472037;32;20183;-76
2021/12/22 08:15:51;;;;;;;17.67;6.60;;;;;;;8.53;38.52;99132.59;4471782;32;19990;-76
2021/12/22 08:18:20;;;;;;;15.23;6.47;;;;;;;7.92;38.74;99130.97;4470946;32;20101;-76
2021/12/22 08:20:47;;;;;;;16.70;6.72;;;;;;;8.96;38.00;99135.25;4471735;32;20088;-76
2021/12/22 08:23:18;;;;;;;14.68;6.47;;;;;;;10.37;35.38;99133.06;4471354;32;20427;-77
2021/12/22 08:25:46;;;;;;;16.40;6.25;;;;;;;11.10;34.19;99135.47;4471774;32;20717;-77
2021/12/22 08:28:13;;;;;;;15.55;6.57;;;;;;;12.23;32.13;99145.91;4470344;32;20121;-77
2021/12/22 08:30:40;;;;;;;15.85;6.82;;;;;;;12.36;31.57;99144.62;4457115;32;20096;-76
2021/12/22 08:33:24;;;;;;;15.52;6.90;;;;;;;11.50;32.12;99137.78;4471718;32;20076;-77
2021/12/22 08:38:58;;;;;;;15.52;7.00;;;;;;;12.16;31.57;99145.25;4459206;32;20157;-77
2021/12/22 08:41:28;;;;;;;16.73;7.55;;;;;;;12.07;31.89;99139.50;4459584;32;20065;-76
2021/12/22 08:43:57;;;;;;;14.48;7.07;;;;;;;12.80;30.77;99141.44;4471303;32;20164;-76
2021/12/22 08:46:25;;;;;;;15.48;7.10;;;;;;;12.64;30.43;99144.53;4471347;32;20103;-76
2021/12/22 08:48:52;;;;;;;14.98;6.55;;;;;;;12.98;30.03;99144.25;4471555;32;20097;-75
2021/12/22 08:51:21;;;;;;;15.25;6.95;;;;;;;13.39;29.32;99148.84;4456981;32;20164;-76
2021/12/22 08:53:48;;;;;;;14.27;6.95;;;;;;;13.54;29.34;99156.09;4471449;32;20081;-76
2021/12/22 08:56:15;;;;;;;16.10;7.18;;;;;;;13.96;28.64;99161.41;4471322;32;20156;-76
2021/12/22 08:58:42;;;;;;;14.30;7.15;;;;;;;12.99;29.72;99153.69;4470788;32;20101;-76
2021/12/22 09:01:10;;;;;;;17.67;7.93;;;;;;;12.35;31.10;99170.53;4471164;32;20144;-76
2021/12/22 09:03:37;;;;;;;16.85;7.12;;;;;;;12.85;30.57;99168.00;4471288;32;20481;-76
2021/12/22 09:06:04;;;;;;;17.90;8.10;;;;;;;11.56;32.36;99166.84;4470873;32;20431;-76
2021/12/22 09:08:31;;;;;;;18.95;8.55;;;;;;;12.10;31.81;99166.12;4471183;32;20093;-76
2021/12/22 09:10:58;;;;;;;16.87;7.68;;;;;;;12.85;30.87;99168.00;4471063;32;20185;-76
2021/12/22 09:13:25;;;;;;;16.95;6.82;;;;;;;12.35;30.80;99173.13;4470712;32;20811;-77
2021/12/22 09:15:52;;;;;;;17.83;7.80;;;;;;;13.01;29.74;99179.56;4457164;32;20115;-76
2021/12/22 09:18:19;;;;;;;17.48;7.57;;;;;;;12.89;30.46;99190.34;4453996;32;20114;-76
2021/12/22 09:20:46;;;;;;;17.60;8.07;;;;;;;12.60;30.69;99183.53;4454957;32;20385;-76
2021/12/22 09:23:14;;;;;;;15.27;7.28;;;;;;;13.19;29.74;99180.69;4455358;32;20081;-76
2021/12/22 09:25:42;;;;;;;14.18;6.93;;;;;;;11.77;31.42;99180.03;4455278;32;20097;-76
2021/12/22 09:28:10;;;;;;;14.10;7.07;;;;;;;12.39;31.52;99174.72;4454787;32;20128;-77
2021/12/22 09:30:38;;;;;;;16.62;7.57;;;;;;;13.16;30.00;99186.78;4455145;32;20175;-77
2021/12/22 09:33:07;;;;;;;17.60;7.75;;;;;;;14.20;28.62;99180.34;4455278;32;20432;-76
2021/12/22 09:35:34;;;;;;;16.80;7.45;;;;;;;14.81;27.63;99179.66;4454847;32;20105;-76
2021/12/22 09:38:01;;;;;;;17.45;7.85;;;;;;;15.65;26.55;99179.44;4453770;32;20459;-77
2021/12/22 09:40:28;;;;;;;16.50;7.43;;;;;;;14.49;27.78;99173.19;4456064;32;20147;-77
2021/12/22 09:42:55;;;;;;;17.58;7.68;;;;;;;15.16;27.13;99178.97;4457194;32;20077;-76
2021/12/22 09:45:25;;;;;;;15.88;7.30;;;;;;;15.71;26.13;99168.75;4457093;32;20267;-76
2021/12/22 09:53:30;;;;;;;17.33;7.95;;;;;;;14.70;28.18;99157.56;4438477;32;20138;-76
2021/12/22 09:56:01;;;;;;;15.05;7.55;;;;;;;15.46;27.05;99157.75;4456782;32;20168;-77
2021/12/22 09:58:28;;;;;;;17.30;7.60;;;;;;;16.04;26.11;99161.13;4455959;32;20127;-77
2021/12/22 10:00:56;;;;;;;15.23;7.43;;;;;;;16.22;26.10;99162.03;4456700;32;20088;-76
2021/12/22 10:03:25;;;;;;;17.12;7.55;;;;;;;14.63;27.88;99152.66;4456714;32;20436;-76
2021/12/22 10:05:52;;;;;;;16.87;8.43;;;;;;;16.17;26.28;99159.66;4455839;32;20165;-76
2021/12/22 10:08:22;;;;;;;18.23;8.65;;;;;;;16.37;25.94;99150.84;4456554;32;20164;-76
2021/12/22 10:11:12;;;;;;;17.35;8.45;;;;;;;15.50;26.93;99152.31;4455669;32;20096;-75
2021/12/22 10:13:44;;;;;;;15.35;7.25;;;;;;;15.01;27.85;99138.91;4457038;32;20103;-76
2021/12/22 10:16:24;;;;;;;17.35;8.00;;;;;;;15.38;27.05;99147.69;4455282;32;20124;-76
2021/12/22 10:19:09;;;;;;;15.57;7.10;;;;;;;15.05;27.14;99147.41;4471594;32;20108;-76
2021/12/22 10:21:51;;;;;;;15.82;7.75;;;;;;;14.16;28.31;99145.88;4458557;32;20100;-76
2021/12/22 10:24:18;;;;;;;15.98;7.68;;;;;;;14.97;27.37;99141.69;4472506;32;20082;-75
2021/12/22 10:26:45;;;;;;;14.15;6.68;;;;;;;13.77;29.24;99132.72;4458855;32;20157;-76
2021/12/22 10:29:12;;;;;;;14.38;6.68;;;;;;;15.06;26.83;99138.69;4471234;32;20187;-76
2021/12/22 10:31:47;;;;;;;13.65;5.87;;;;;;;14.95;27.07;99146.13;4458008;32;20172;-76
2021/12/22 10:34:17;;;;;;;13.13;5.60;;;;;;;14.96;26.88;99140.00;4458513;32;20088;-77
2021/12/22 10:36:49;;;;;;;13.57;5.95;;;;;;;14.59;27.08;99140.72;4471929;32;20109;-77
2021/12/22 10:39:25;;;;;;;16.45;6.68;;;;;;;14.67;27.80;99142.09;4472048;32;20116;-77
2021/12/22 10:41:52;;;;;;;14.45;6.10;;;;;;;14.92;27.22;99141.91;4472164;32;20097;-77
2021/12/22 10:44:20;;;;;;;13.30;6.70;;;;;;;14.85;27.34;99139.63;4471834;32;20085;-76
2021/12/22 10:46:47;;;;;;;19.15;8.40;;;;;;;15.29;26.97;99135.91;4458230;32;20115;-76
2021/12/22 10:49:21;;;;;;;16.17;8.15;;;;;;;15.23;27.27;99137.97;4472031;32;20522;-76
2021/12/22 10:51:58;;;;;;;17.10;7.45;;;;;;;14.50;28.51;99139.34;4471180;32;20084;-76
2021/12/22 10:54:36;;;;;;;15.90;7.22;;;;;;;14.12;29.64;99125.28;4472204;32;20469;-76
2021/12/22 10:57:08;;;;;;;17.20;7.70;;;;;;;14.38;28.75;99119.91;4472135;32;20131;-76
2021/12/22 10:59:42;;;;;;;15.13;6.75;;;;;;;14.55;28.55;99132.19;4471685;32;20132;-76
2021/12/22 11:02:11;;;;;;;18.30;7.30;;;;;;;14.75;27.88;99123.56;4472117;32;20159;-76
2021/12/22 11:04:45;;;;;;;14.20;6.62;;;;;;;14.65;28.00;99119.69;4471807;32;20462;-76
2021/12/22 11:07:22;;;;;;;13.88;6.55;;;;;;;14.27;28.99;99118.66;4472013;32;20152;-77
2021/12/22 11:09:50;;;;;;;13.75;6.15;;;;;;;14.33;28.12;99119.22;4472127;32;20111;-76
2021/12/22 11:12:17;;;;;;;13.85;6.78;;;;;;;13.67;29.06;99117.56;4457563;32;20468;-77
2021/12/22 11:14:50;;;;;;;14.32;6.75;;;;;;;12.79;31.19;99119.88;4471932;32;20419;-76
2021/12/22 11:17:20;;;;;;;15.52;6.82;;;;;;;11.10;34.07;99112.22;4471877;32;20201;-76
2021/12/22 11:19:56;;;;;;;15.50;7.30;;;;;;;11.02;34.35;99121.00;4471530;32;20148;-76
2021/12/22 11:23:02;;;;;;;15.68;6.50;;;;;;;10.46;35.65;99119.09;4458428;32;20163;-77
2021/12/22 11:25:30;;;;;;;16.35;6.70;;;;;;;10.61;35.75;99121.25;4459861;32;20136;-77
2021/12/22 11:27:59;;;;;;;19.33;7.12;;;;;;;10.09;36.38;99112.19;4458002;32;20097;-76
2021/12/22 11:30:27;;;;;;;17.75;7.10;;;;;;;10.57;35.26;99115.34;4471898;32;20115;-77
2021/12/22 11:32:54;;;;;;;17.20;7.10;;;;;;;10.36;36.16;99106.41;4471655;32;20148;-76
2021/12/22 11:35:22;;;;;;;14.55;6.50;;;;;;;10.31;36.10;99104.81;4471959;32;20462;-76
2021/12/22 11:37:49;;;;;;;12.70;5.32;;;;;;;10.53;35.43;99100.84;4457836;32;20471;-76
2021/12/22 11:40:18;;;;;;;13.77;5.20;;;;;;;10.71;34.54;99099.50;4457452;32;20159;-76
2021/12/22 11:42:45;;;;;;;13.45;5.30;;;;;;;10.05;34.86;99092.53;4471842;32;20088;-76
2021/12/22 11:45:15;;;;;;;12.95;5.00;;;;;;;10.39;34.55;99101.16;4471892;32;20077;-76
2021/12/22 11:47:50;;;;;;;13.00;5.55;;;;;;;9.69;35.92;99089.94;4457585;32;20096;-76
2021/12/22 11:50:27;;;;;;;14.02;4.93;;;;;;;9.86;35.53;99084.38;4457868;32;20503;-76
2021/12/22 11:52:58;;;;;;;;;;;;;;;9.95;35.41;99080.75;4458194;32;20101;-77
2021/12/22 11:55:38;;;;;;;13.05;5.32;;;;;;;9.42;36.25;99072.50;4471467;32;19964;-76
2021/12/22 11:58:18;;;;;;;12.77;5.22;;;;;;;10.34;34.76;99081.53;4471922;32;20135;-77
2021/12/22 12:00:57;;;;;;;14.65;5.40;;;;;;;10.31;34.19;99084.19;4471294;32;20394;-77
2021/12/22 12:03:40;;;;;;;13.20;5.87;;;;;;;10.03;34.95;99084.00;4457674;32;20144;-77